createdAt,value
2019-03-03T00:00:19.045Z,69.20
2019-03-03T00:02:47.514Z,69.20
2019-03-03T00:05:15.973Z,70.00
2019-03-03T00:07:44.440Z,70.20
2019-03-03T00:10:13.243Z,70.40
2019-03-03T00:12:41.687Z,70.40
2019-03-03T00:15:12.091Z,70.50
2019-03-03T00:17:40.531Z,70.30
2019-03-03T00:20:11.199Z,70.80
2019-03-03T00:22:39.733Z,71.30
2019-03-03T00:25:10.792Z,71.30
2019-03-03T00:27:39.252Z,72.30
2019-03-03T00:30:13.246Z,72.00
2019-03-03T00:32:41.763Z,71.50
2019-03-03T00:35:10.203Z,71.50
2019-03-03T00:37:40.290Z,71.80
2019-03-03T00:40:16.450Z,71.50
2019-03-03T00:42:49.442Z,71.70
2019-03-03T00:45:35.707Z,71.70
2019-03-03T00:48:22.562Z,72.10
2019-03-03T00:50:58.562Z,72.00
2019-03-03T00:53:34.624Z,72.10
2019-03-03T00:56:20.978Z,72.40
2019-03-03T00:58:51.087Z,72.70
2019-03-03T01:01:37.407Z,73.10
2019-03-03T01:04:07.559Z,72.40
2019-03-03T01:06:53.787Z,72.40
2019-03-03T01:09:37.278Z,72.30
2019-03-03T01:12:13.508Z,72.40
2019-03-03T01:14:58.636Z,72.70
2019-03-03T01:17:31.695Z,72.60
2019-03-03T01:20:07.829Z,72.60
2019-03-03T01:22:37.910Z,72.70
2019-03-03T01:25:07.177Z,72.50
2019-03-03T01:27:35.645Z,72.40
2019-03-03T01:30:07.295Z,72.60
2019-03-03T01:32:35.816Z,72.70
2019-03-03T01:35:05.523Z,72.30
2019-03-03T01:37:34.031Z,72.10
2019-03-03T01:40:02.574Z,72.00
2019-03-03T01:42:31.023Z,72.10
2019-03-03T01:44:59.483Z,72.10
2019-03-03T01:47:27.956Z,71.90
2019-03-03T01:49:56.395Z,72.00
2019-03-03T01:52:24.846Z,72.00
2019-03-03T01:54:53.343Z,72.00
2019-03-03T01:57:21.859Z,71.70
2019-03-03T01:59:50.327Z,71.80
2019-03-03T02:02:18.813Z,72.60
2019-03-03T02:04:47.258Z,71.50
2019-03-03T02:07:15.771Z,71.50
2019-03-03T02:09:44.249Z,71.40
2019-03-03T02:12:12.698Z,71.50
2019-03-03T02:14:41.174Z,71.30
2019-03-03T02:17:11.251Z,71.30
2019-03-03T02:19:39.690Z,71.30
2019-03-03T02:22:08.246Z,71.10
2019-03-03T02:24:36.690Z,71.10
2019-03-03T02:27:05.227Z,70.80
2019-03-03T02:29:33.767Z,70.80
2019-03-03T02:32:02.231Z,70.70
2019-03-03T02:34:30.681Z,70.60
2019-03-03T02:36:59.224Z,70.50
2019-03-03T02:39:27.680Z,70.40
2019-03-03T02:41:56.151Z,70.30
2019-03-03T02:44:24.673Z,70.20
2019-03-03T02:46:53.152Z,70.10
2019-03-03T02:49:21.601Z,70.10
2019-03-03T02:51:50.051Z,70.00
2019-03-03T02:54:18.514Z,70.00
2019-03-03T02:56:47.041Z,70.00
2019-03-03T02:59:15.510Z,69.80
2019-03-03T03:01:45.600Z,69.90
2019-03-03T03:04:14.068Z,69.80
2019-03-03T03:06:44.148Z,69.80
2019-03-03T03:09:23.409Z,69.70
2019-03-03T03:11:53.490Z,69.60
2019-03-03T03:17:13.587Z,69.50
2019-03-03T03:19:46.717Z,69.40
2019-03-03T03:22:28.662Z,69.20
2019-03-03T03:25:01.437Z,69.10
2019-03-03T03:27:31.591Z,69.00
2019-03-03T03:30:01.681Z,68.90
2019-03-03T03:32:31.856Z,68.80
2019-03-03T03:35:04.682Z,68.60
2019-03-03T03:37:34.775Z,68.50
2019-03-03T03:40:15.118Z,68.40
2019-03-03T03:42:45.733Z,68.20
2019-03-03T03:45:33.807Z,68.10
2019-03-03T03:48:06.839Z,68.10
2019-03-03T03:50:53.070Z,67.90
2019-03-03T03:53:23.255Z,68.10
2019-03-03T03:55:56.056Z,67.80
2019-03-03T03:58:26.624Z,67.90
2019-03-03T04:00:59.106Z,67.80
2019-03-03T04:03:29.204Z,67.60
2019-03-03T04:06:02.016Z,67.60
2019-03-03T04:08:41.039Z,67.50
2019-03-03T04:11:27.092Z,67.40
2019-03-03T04:13:57.185Z,67.30
2019-03-03T04:16:30.220Z,67.20
2019-03-03T04:19:16.507Z,67.20
2019-03-03T04:21:52.738Z,67.20
2019-03-03T04:24:25.819Z,67.10
2019-03-03T04:27:01.436Z,67.20
2019-03-03T04:29:34.497Z,67.10
2019-03-03T04:32:04.586Z,67.00
2019-03-03T04:34:34.681Z,67.00
2019-03-03T04:37:13.901Z,66.90
2019-03-03T04:39:59.195Z,66.90
2019-03-03T04:42:35.227Z,66.90
2019-03-03T04:45:06.279Z,66.90
2019-03-03T04:47:53.027Z,66.90
2019-03-03T04:50:35.058Z,66.90
2019-03-03T04:53:14.055Z,66.90
2019-03-03T04:55:50.131Z,66.90
2019-03-03T04:58:32.249Z,66.80
2019-03-03T05:01:05.296Z,67.00
2019-03-03T05:03:38.084Z,66.80
2019-03-03T05:06:08.181Z,66.90
2019-03-03T05:08:40.947Z,66.90
2019-03-03T05:11:28.202Z,67.10
2019-03-03T05:13:58.651Z,67.20
2019-03-03T05:16:34.904Z,67.40
2019-03-03T05:19:05.038Z,67.80
2019-03-03T05:21:33.483Z,68.10
2019-03-03T05:24:01.926Z,68.40
2019-03-03T05:26:30.395Z,69.40
2019-03-03T05:28:58.830Z,68.80
2019-03-03T05:31:29.322Z,68.90
2019-03-03T05:33:57.458Z,69.20
2019-03-03T05:36:26.032Z,69.40
2019-03-03T05:38:54.479Z,69.70
2019-03-03T05:41:22.920Z,70.00
2019-03-03T05:43:51.372Z,70.10
2019-03-03T05:46:19.830Z,70.50
2019-03-03T05:48:48.296Z,70.80
2019-03-03T05:51:16.772Z,71.00
2019-03-03T05:53:45.215Z,71.10
2019-03-03T05:56:13.668Z,71.30
2019-03-03T05:58:42.128Z,71.90
2019-03-03T06:01:10.576Z,71.80
2019-03-03T06:03:39.035Z,72.30
2019-03-03T06:06:07.480Z,72.40
2019-03-03T06:08:35.951Z,72.80
2019-03-03T06:11:04.395Z,73.00
2019-03-03T06:13:32.840Z,73.00
2019-03-03T06:16:01.305Z,74.00
2019-03-03T06:18:29.753Z,73.80
2019-03-03T06:20:58.216Z,74.10
2019-03-03T06:23:26.672Z,73.80
2019-03-03T06:25:55.203Z,74.20
2019-03-03T06:28:23.639Z,73.90
2019-03-03T06:30:52.128Z,74.20
2019-03-03T06:33:20.568Z,75.00
2019-03-03T06:35:49.030Z,74.90
2019-03-03T06:38:17.493Z,74.90
2019-03-03T06:40:46.286Z,74.80
2019-03-03T06:43:14.739Z,75.00
2019-03-03T06:45:43.190Z,75.00
2019-03-03T06:48:11.647Z,75.40
2019-03-03T06:50:40.091Z,75.60
2019-03-03T06:53:08.550Z,75.50
2019-03-03T06:55:37.017Z,75.30
2019-03-03T06:58:05.499Z,75.20
2019-03-03T07:00:33.937Z,75.50
2019-03-03T07:03:02.380Z,75.30
2019-03-03T07:05:30.847Z,75.50
2019-03-03T07:07:59.286Z,75.60
2019-03-03T07:10:27.733Z,75.50
2019-03-03T07:12:56.188Z,75.70
2019-03-03T07:15:24.641Z,75.60
2019-03-03T07:17:53.110Z,76.00
2019-03-03T07:20:21.663Z,75.90
2019-03-03T07:22:50.124Z,75.90
2019-03-03T07:25:18.568Z,75.90
2019-03-03T07:27:47.026Z,75.90
2019-03-03T07:30:16.398Z,76.00
2019-03-03T07:33:04.786Z,76.00
2019-03-03T07:35:33.295Z,76.10
2019-03-03T07:38:01.779Z,75.90
2019-03-03T07:40:30.284Z,76.00
2019-03-03T07:42:58.743Z,76.00
2019-03-03T07:45:27.252Z,76.00
2019-03-03T07:47:55.742Z,76.10
2019-03-03T07:50:24.202Z,76.30
2019-03-03T07:52:52.686Z,76.30
2019-03-03T07:55:21.123Z,76.40
2019-03-03T07:57:49.603Z,76.30
2019-03-03T08:00:18.051Z,76.20
2019-03-03T08:02:46.518Z,76.20
2019-03-03T08:05:14.966Z,76.80
2019-03-03T08:07:43.536Z,76.70
2019-03-03T08:10:13.151Z,76.40
2019-03-03T08:12:41.655Z,76.50
2019-03-03T08:15:15.251Z,76.50
2019-03-03T08:17:43.702Z,76.60
2019-03-03T08:20:13.713Z,76.50
2019-03-03T08:22:42.235Z,76.80
2019-03-03T08:25:12.958Z,77.10
2019-03-03T08:27:41.461Z,76.90
2019-03-03T08:30:19.570Z,76.80
2019-03-03T08:32:48.143Z,76.60
2019-03-03T08:35:27.929Z,76.70
2019-03-03T08:37:56.371Z,76.80
2019-03-03T08:40:24.834Z,76.80
2019-03-03T08:43:00.868Z,77.10
2019-03-03T08:45:47.219Z,77.10
2019-03-03T08:48:20.291Z,76.90
2019-03-03T08:50:50.382Z,76.80
2019-03-03T08:53:23.156Z,76.80
2019-03-03T08:56:05.146Z,76.90
2019-03-03T08:58:35.239Z,76.80
2019-03-03T09:01:05.893Z,76.60
2019-03-03T09:03:44.871Z,76.60
2019-03-03T09:06:17.867Z,76.80
2019-03-03T09:08:47.975Z,76.60
2019-03-03T09:11:34.494Z,76.60
2019-03-03T09:14:04.606Z,76.80
2019-03-03T09:16:34.692Z,77.20
2019-03-03T09:19:04.790Z,77.10
2019-03-03T09:21:37.990Z,77.50
2019-03-03T09:27:04.379Z,77.10
2019-03-03T09:29:37.108Z,77.30
2019-03-03T09:32:07.271Z,77.00
2019-03-03T09:34:55.692Z,77.10
2019-03-03T09:37:33.207Z,77.00
2019-03-03T09:40:18.471Z,77.00
2019-03-03T09:43:00.286Z,76.90
2019-03-03T09:45:33.295Z,77.20
2019-03-03T09:48:03.392Z,77.20
2019-03-03T09:50:36.187Z,77.20
2019-03-03T09:53:17.941Z,77.20
2019-03-03T09:55:48.018Z,77.10
2019-03-03T09:58:20.799Z,77.20
2019-03-03T10:00:53.968Z,77.10
2019-03-03T10:03:30.174Z,77.10
2019-03-03T10:06:06.051Z,77.20
2019-03-03T10:08:45.073Z,77.20
2019-03-03T10:11:15.152Z,77.20
2019-03-03T10:13:50.687Z,77.30
2019-03-03T10:16:23.712Z,77.40
2019-03-03T10:19:09.990Z,77.30
2019-03-03T10:21:40.087Z,77.40
2019-03-03T10:24:18.938Z,77.30
2019-03-03T10:26:54.431Z,77.10
2019-03-03T10:29:33.688Z,77.00
2019-03-03T10:32:09.899Z,77.00
2019-03-03T10:34:40.503Z,76.90
2019-03-03T10:37:10.607Z,77.00
2019-03-03T10:39:40.767Z,77.00
2019-03-03T10:42:13.611Z,77.10
2019-03-03T10:44:49.499Z,77.10
2019-03-03T10:47:35.883Z,77.20
2019-03-03T10:50:22.958Z,77.30
2019-03-03T10:52:53.040Z,77.30
2019-03-03T10:55:23.147Z,77.40
2019-03-03T10:57:53.243Z,77.50
2019-03-03T11:00:35.460Z,77.60
2019-03-03T11:03:11.362Z,77.60
2019-03-03T11:05:53.472Z,77.70
2019-03-03T11:08:26.519Z,77.60
2019-03-03T11:10:57.803Z,77.60
2019-03-03T11:13:30.811Z,77.60
2019-03-03T11:16:09.701Z,77.70
2019-03-03T11:18:55.771Z,78.40
2019-03-03T11:21:29.270Z,77.80
2019-03-03T11:23:59.398Z,78.00
2019-03-03T11:26:32.225Z,78.20
2019-03-03T11:29:14.554Z,78.30
2019-03-03T11:31:53.623Z,78.40
2019-03-03T11:34:23.722Z,78.30
2019-03-03T11:36:59.655Z,78.40
2019-03-03T11:39:29.761Z,78.50
2019-03-03T11:42:05.343Z,78.60
2019-03-03T11:44:35.451Z,78.60
2019-03-03T11:47:25.147Z,78.70
2019-03-03T11:50:00.960Z,79.00
2019-03-03T11:52:31.034Z,79.10
2019-03-03T11:55:04.311Z,79.10
2019-03-03T11:57:51.039Z,80.00
2019-03-03T12:00:21.250Z,79.40
2019-03-03T12:02:54.035Z,79.50
2019-03-03T12:05:35.309Z,79.60
2019-03-03T12:08:05.406Z,79.70
2019-03-03T12:10:35.573Z,80.40
2019-03-03T12:13:20.942Z,79.60
2019-03-03T12:16:03.068Z,79.50
2019-03-03T12:18:38.963Z,79.40
2019-03-03T12:21:11.443Z,79.40
2019-03-03T12:23:44.316Z,79.60
2019-03-03T12:26:14.391Z,79.90
2019-03-03T12:28:56.472Z,79.90
2019-03-03T12:31:26.558Z,80.20
2019-03-03T12:33:56.640Z,80.30
2019-03-03T12:36:26.757Z,80.30
2019-03-03T12:38:59.890Z,80.40
2019-03-03T12:41:46.403Z,80.40
2019-03-03T12:44:22.480Z,80.60
2019-03-03T12:46:52.583Z,80.50
2019-03-03T12:49:31.615Z,80.40
2019-03-03T12:52:04.832Z,80.00
2019-03-03T12:54:37.847Z,79.90
2019-03-03T12:57:08.014Z,79.60
2019-03-03T12:59:40.844Z,79.40
2019-03-03T13:02:16.835Z,79.30
2019-03-03T13:04:50.029Z,80.00
2019-03-03T13:07:20.176Z,79.30
2019-03-03T13:10:08.287Z,79.30
2019-03-03T13:15:38.533Z,79.80
2019-03-03T13:18:17.302Z,80.10
2019-03-03T13:21:02.342Z,80.20
2019-03-03T13:23:44.307Z,80.30
2019-03-03T13:26:17.199Z,80.10
2019-03-03T13:28:49.995Z,80.10
2019-03-03T13:31:20.081Z,80.20
2019-03-03T13:34:04.991Z,80.30
2019-03-03T13:36:40.720Z,80.30
2019-03-03T13:39:15.279Z,80.30
2019-03-03T13:42:00.470Z,80.40
2019-03-03T13:44:28.933Z,80.60
2019-03-03T13:46:57.374Z,80.60
2019-03-03T13:49:25.823Z,80.60
2019-03-03T13:51:54.509Z,80.60
2019-03-03T13:54:23.040Z,80.50
2019-03-03T13:56:51.556Z,80.50
2019-03-03T13:59:20.064Z,80.30
2019-03-03T14:01:48.616Z,80.40
2019-03-03T14:04:17.087Z,80.30
2019-03-03T14:06:45.531Z,80.30
2019-03-03T14:09:13.988Z,80.30
2019-03-03T14:11:42.430Z,80.60
2019-03-03T14:14:10.882Z,80.70
2019-03-03T14:16:39.339Z,80.60
2019-03-03T14:19:07.790Z,80.70
2019-03-03T14:21:36.306Z,80.60
2019-03-03T14:24:05.275Z,80.60
2019-03-03T14:26:33.715Z,80.70
2019-03-03T14:29:02.199Z,80.70
2019-03-03T14:31:30.636Z,80.70
2019-03-03T14:33:59.082Z,80.70
2019-03-03T14:36:27.533Z,80.70
2019-03-03T14:38:55.975Z,80.60
2019-03-03T14:41:24.433Z,80.70
2019-03-03T14:43:52.862Z,80.70
2019-03-03T14:46:21.311Z,80.60
2019-03-03T14:48:49.768Z,80.60
2019-03-03T14:51:18.210Z,80.60
2019-03-03T14:53:46.667Z,80.60
2019-03-03T14:56:15.127Z,80.60
2019-03-03T14:58:43.667Z,80.50
2019-03-03T15:01:12.147Z,80.50
2019-03-03T15:03:40.594Z,80.50
2019-03-03T15:06:09.033Z,80.60
2019-03-03T15:08:37.493Z,80.60
2019-03-03T15:11:05.955Z,80.60
2019-03-03T15:13:34.403Z,80.60
2019-03-03T15:16:02.866Z,80.60
2019-03-03T15:18:31.331Z,80.50
2019-03-03T15:20:59.907Z,80.50
2019-03-03T15:23:28.360Z,80.40
2019-03-03T15:25:56.799Z,80.50
2019-03-03T15:28:25.282Z,80.50
2019-03-03T15:30:53.775Z,80.50
2019-03-03T15:33:22.232Z,80.60
2019-03-03T15:35:51.249Z,80.60
2019-03-03T15:38:19.691Z,80.70
2019-03-03T15:40:48.238Z,80.70
2019-03-03T15:43:16.686Z,80.70
2019-03-03T15:45:45.135Z,80.70
2019-03-03T15:48:13.578Z,80.70
2019-03-03T15:50:42.067Z,80.70
2019-03-03T15:53:10.507Z,80.70
2019-03-03T15:55:38.955Z,80.70
2019-03-03T15:58:07.443Z,80.70
2019-03-03T16:00:37.675Z,80.80
2019-03-03T16:03:06.216Z,80.90
2019-03-03T16:05:34.730Z,81.70
2019-03-03T16:08:03.196Z,80.90
2019-03-03T16:10:31.626Z,80.90
2019-03-03T16:13:00.667Z,80.80
2019-03-03T16:15:29.149Z,80.70
2019-03-03T16:17:57.586Z,80.70
2019-03-03T16:20:26.039Z,80.80
2019-03-03T16:22:54.500Z,80.90
2019-03-03T16:25:26.019Z,81.00
2019-03-03T16:27:54.502Z,80.90
2019-03-03T16:30:24.273Z,80.90
2019-03-03T16:32:52.719Z,81.00
2019-03-03T16:35:21.175Z,81.20
2019-03-03T16:37:49.656Z,81.20
2019-03-03T16:40:25.925Z,81.30
2019-03-03T16:42:54.443Z,81.40
2019-03-03T16:45:22.956Z,81.60
2019-03-03T16:47:51.464Z,81.80
2019-03-03T16:50:22.066Z,81.80
2019-03-03T16:52:50.702Z,82.00
2019-03-03T16:55:20.495Z,82.20
2019-03-03T16:57:48.936Z,82.30
2019-03-03T17:00:21.659Z,82.60
2019-03-03T17:02:50.161Z,82.80
2019-03-03T17:05:21.123Z,82.80
2019-03-03T17:07:49.559Z,82.80
2019-03-03T17:10:18.074Z,82.80
2019-03-03T17:12:46.606Z,82.80
2019-03-03T17:15:20.496Z,82.80
2019-03-03T17:17:48.947Z,82.80
2019-03-03T17:20:17.405Z,82.70
2019-03-03T17:22:45.931Z,82.70
2019-03-03T17:25:19.851Z,82.60
2019-03-03T17:27:48.304Z,82.60
2019-03-03T17:30:21.374Z,82.50
2019-03-03T17:32:49.823Z,82.40
2019-03-03T17:35:18.266Z,82.40
2019-03-03T17:37:46.796Z,82.50
2019-03-03T17:40:17.551Z,82.30
2019-03-03T17:42:46.120Z,82.30
2019-03-03T17:45:17.196Z,82.30
2019-03-03T17:47:45.707Z,82.30
2019-03-03T17:50:28.992Z,82.30
2019-03-03T17:52:57.502Z,82.30
2019-03-03T17:55:25.960Z,82.30
2019-03-03T17:57:54.407Z,82.30
2019-03-03T18:00:34.184Z,82.30
2019-03-03T18:03:02.623Z,82.30
2019-03-03T18:05:31.082Z,82.30
2019-03-03T18:07:59.601Z,82.40
2019-03-03T18:10:28.163Z,82.30
2019-03-03T18:12:56.605Z,82.30
2019-03-03T18:15:25.099Z,82.30
2019-03-03T18:17:53.580Z,82.30
2019-03-03T18:20:22.534Z,82.30
2019-03-03T18:22:51.097Z,82.20
2019-03-03T18:25:20.694Z,82.30
2019-03-03T18:27:49.156Z,82.20
2019-03-03T18:30:20.207Z,82.30
2019-03-03T18:32:48.674Z,82.30
2019-03-03T18:35:17.238Z,82.20
2019-03-03T18:37:45.942Z,82.20
2019-03-03T18:40:22.818Z,82.20
2019-03-03T18:42:51.361Z,82.20
2019-03-03T18:45:20.959Z,82.30
2019-03-03T18:47:49.755Z,82.40
2019-03-03T18:50:21.325Z,82.30
2019-03-03T18:52:49.839Z,82.30
2019-03-03T18:55:18.440Z,82.40
2019-03-03T18:57:46.986Z,82.30
2019-03-03T19:00:22.671Z,81.70
2019-03-03T19:02:51.513Z,82.30
2019-03-03T19:05:20.075Z,82.20
2019-03-03T19:07:49.267Z,82.20
2019-03-03T19:10:25.985Z,82.30
2019-03-03T19:12:54.469Z,82.30
2019-03-03T19:15:23.015Z,82.30
2019-03-03T19:17:51.475Z,82.30
2019-03-03T19:20:21.245Z,82.20
2019-03-03T19:22:50.347Z,82.30
2019-03-03T19:25:18.946Z,82.20
2019-03-03T19:27:47.463Z,82.20
2019-03-03T19:30:18.180Z,82.20
2019-03-03T19:32:48.674Z,82.10
2019-03-03T19:35:17.135Z,82.20
2019-03-03T19:37:45.668Z,82.20
2019-03-03T19:40:14.786Z,82.10
2019-03-03T19:42:43.271Z,82.20
2019-03-03T19:45:20.350Z,82.10
2019-03-03T19:47:48.999Z,82.10
2019-03-03T19:50:17.573Z,82.10
2019-03-03T19:52:46.018Z,82.10
2019-03-03T19:55:16.628Z,82.20
2019-03-03T19:57:45.142Z,82.20
2019-03-03T20:00:19.500Z,82.10
2019-03-03T20:02:47.951Z,82.20
2019-03-03T20:05:16.480Z,82.20
2019-03-03T20:07:44.928Z,82.20
2019-03-03T20:10:13.971Z,82.20
2019-03-03T20:12:42.579Z,82.20
2019-03-03T20:15:11.088Z,82.50
2019-03-03T20:17:41.491Z,82.20
2019-03-03T20:20:17.338Z,82.10
2019-03-03T20:22:45.867Z,82.10
2019-03-03T20:25:14.451Z,82.10
2019-03-03T20:27:43.757Z,82.20
2019-03-03T20:30:20.094Z,82.10
2019-03-03T20:32:48.721Z,82.00
2019-03-03T20:35:17.334Z,82.10
2019-03-03T20:37:46.035Z,82.00
2019-03-03T20:40:16.442Z,82.00
2019-03-03T20:42:44.971Z,82.00
2019-03-03T20:45:19.146Z,81.90
2019-03-03T20:47:47.884Z,81.90
2019-03-03T20:50:19.031Z,81.90
2019-03-03T20:52:47.555Z,81.90
2019-03-03T20:55:18.238Z,81.90
2019-03-03T20:57:46.701Z,81.90
2019-03-03T21:00:20.940Z,81.90
2019-03-03T21:02:49.481Z,81.90
2019-03-03T21:05:17.938Z,81.80
2019-03-03T21:07:51.483Z,81.90
2019-03-03T21:10:30.023Z,81.80
2019-03-03T21:12:58.551Z,81.90
2019-03-03T21:15:27.078Z,81.80
2019-03-03T21:17:55.530Z,81.80
2019-03-03T21:20:24.365Z,81.80
2019-03-03T21:22:52.803Z,81.80
2019-03-03T21:25:21.322Z,81.70
2019-03-03T21:27:49.786Z,81.60
2019-03-03T21:30:20.791Z,81.60
2019-03-03T21:32:49.804Z,81.60
2019-03-03T21:35:18.326Z,81.60
2019-03-03T21:37:46.856Z,81.60
2019-03-03T21:40:23.737Z,81.60
2019-03-03T21:42:52.372Z,81.50
2019-03-03T21:45:25.322Z,81.60
2019-03-03T21:47:54.627Z,81.50
2019-03-03T21:50:25.277Z,81.70
2019-03-03T21:52:53.738Z,81.60
2019-03-03T21:55:22.183Z,81.50
2019-03-03T21:57:50.643Z,81.50
2019-03-03T22:00:24.171Z,81.50
2019-03-03T22:02:52.883Z,81.50
2019-03-03T22:05:21.334Z,81.50
2019-03-03T22:07:49.795Z,81.50
2019-03-03T22:10:18.278Z,81.40
2019-03-03T22:12:46.715Z,81.50
2019-03-03T22:15:15.206Z,81.50
2019-03-03T22:17:43.708Z,81.40
2019-03-03T22:20:12.339Z,81.50
2019-03-03T22:22:40.882Z,81.40
2019-03-03T22:25:12.752Z,81.40
2019-03-03T22:27:41.274Z,81.30
2019-03-03T22:30:12.796Z,81.30
2019-03-03T22:32:41.311Z,81.90
2019-03-03T22:35:09.840Z,80.40
2019-03-03T22:37:38.291Z,81.00
2019-03-03T22:40:12.331Z,81.00
2019-03-03T22:42:40.803Z,80.90
2019-03-03T22:45:14.286Z,80.70
2019-03-03T22:47:42.877Z,80.80
2019-03-03T22:50:19.055Z,81.00
2019-03-03T22:52:47.505Z,80.90
2019-03-03T22:55:17.708Z,80.90
2019-03-03T22:57:46.147Z,81.00
2019-03-03T23:00:24.311Z,81.00
2019-03-03T23:02:52.836Z,80.70
2019-03-03T23:05:33.049Z,81.00
2019-03-03T23:08:07.225Z,80.80
2019-03-03T23:10:38.733Z,81.00
2019-03-03T23:13:28.239Z,81.20
2019-03-03T23:16:26.531Z,81.10
2019-03-03T23:19:14.466Z,81.20
2019-03-03T23:21:51.928Z,81.20
2019-03-03T23:24:43.133Z,81.20
2019-03-03T23:27:11.576Z,81.00
2019-03-03T23:29:40.031Z,81.00
2019-03-03T23:32:08.484Z,81.00
2019-03-03T23:34:36.944Z,80.60
2019-03-03T23:37:05.393Z,80.40
2019-03-03T23:39:33.874Z,80.30
2019-03-03T23:42:02.331Z,80.10
2019-03-03T23:44:30.768Z,80.10
2019-03-03T23:46:59.236Z,80.20
2019-03-03T23:49:27.676Z,80.90
2019-03-03T23:51:56.139Z,80.40
2019-03-03T23:54:24.951Z,79.60
2019-03-03T23:56:53.411Z,80.20
2019-03-03T23:59:21.875Z,80.00
